sensor_id;sensor_type;location;lat;lon;timestamp;temperature;humidity
23475;DHT22;11910;52.086;21.066;2023-03-04T00:01:51;1.60;99.90
23475;DHT22;11910;52.086;21.066;2023-03-04T00:04:17;1.60;99.90
23475;DHT22;11910;52.086;21.066;2023-03-04T00:06:43;1.60;99.90
23475;DHT22;11910;52.086;21.066;2023-03-04T00:09:08;1.70;99.90
23475;DHT22;11910;52.086;21.066;2023-03-04T00:11:34;1.70;99.90
23475;DHT22;11910;52.086;21.066;2023-03-04T00:13:59;1.60;99.90
23475;DHT22;11910;52.086;21.066;2023-03-04T00:16:25;1.60;99.90
23475;DHT22;11910;52.086;21.066;2023-03-04T00:18:54;1.60;99.90
23475;DHT22;11910;52.086;21.066;2023-03-04T00:21:21;1.60;99.90
23475;DHT22;11910;52.086;21.066;2023-03-04T00:23:46;1.60;99.90
23475;DHT22;11910;52.086;21.066;2023-03-04T00:26:12;1.60;99.90
23475;DHT22;11910;52.086;21.066;2023-03-04T00:28:38;1.70;99.90
23475;DHT22;11910;52.086;21.066;2023-03-04T00:31:05;1.70;99.90
23475;DHT22;11910;52.086;21.066;2023-03-04T00:33:31;1.70;99.90
23475;DHT22;11910;52.086;21.066;2023-03-04T00:35:57;1.70;99.90
23475;DHT22;11910;52.086;21.066;2023-03-04T00:38:22;1.70;99.90
23475;DHT22;11910;52.086;21.066;2023-03-04T00:40:48;1.70;99.90
23475;DHT22;11910;52.086;21.066;2023-03-04T00:43:13;1.70;99.90
23475;DHT22;11910;52.086;21.066;2023-03-04T00:45:39;1.70;99.90
23475;DHT22;11910;52.086;21.066;2023-03-04T00:48:04;1.70;99.90
23475;DHT22;11910;52.086;21.066;2023-03-04T00:50:30;1.70;99.90
23475;DHT22;11910;52.086;21.066;2023-03-04T00:52:56;1.70;99.90
23475;DHT22;11910;52.086;21.066;2023-03-04T00:55:21;1.70;99.90
23475;DHT22;11910;52.086;21.066;2023-03-04T00:57:47;1.70;99.90
23475;DHT22;11910;52.086;21.066;2023-03-04T01:00:13;1.70;99.90
23475;DHT22;11910;52.086;21.066;2023-03-04T01:02:39;1.60;99.90
23475;DHT22;11910;52.086;21.066;2023-03-04T01:05:06;1.70;99.90
23475;DHT22;11910;52.086;21.066;2023-03-04T01:07:32;1.70;99.90
23475;DHT22;11910;52.086;21.066;2023-03-04T01:09:57;1.70;99.90
23475;DHT22;11910;52.086;21.066;2023-03-04T01:12:23;1.70;99.90
23475;DHT22;11910;52.086;21.066;2023-03-04T01:14:48;1.70;99.90
23475;DHT22;11910;52.086;21.066;2023-03-04T01:17:14;1.70;99.90
23475;DHT22;11910;52.086;21.066;2023-03-04T01:19:40;1.70;99.90
23475;DHT22;11910;52.086;21.066;2023-03-04T01:22:05;1.70;99.90
23475;DHT22;11910;52.086;21.066;2023-03-04T01:24:31;1.70;99.90
23475;DHT22;11910;52.086;21.066;2023-03-04T01:26:56;1.70;99.90
23475;DHT22;11910;52.086;21.066;2023-03-04T01:29:22;1.70;99.90
23475;DHT22;11910;52.086;21.066;2023-03-04T01:31:47;1.70;99.90
23475;DHT22;11910;52.086;21.066;2023-03-04T01:34:13;1.60;99.90
23475;DHT22;11910;52.086;21.066;2023-03-04T01:36:38;1.60;99.90
23475;DHT22;11910;52.086;21.066;2023-03-04T01:39:04;1.60;99.90
23475;DHT22;11910;52.086;21.066;2023-03-04T01:41:30;1.60;99.90
23475;DHT22;11910;52.086;21.066;2023-03-04T01:43:57;1.60;99.90
23475;DHT22;11910;52.086;21.066;2023-03-04T01:46:25;1.60;99.90
23475;DHT22;11910;52.086;21.066;2023-03-04T01:48:51;1.60;99.90
23475;DHT22;11910;52.086;21.066;2023-03-04T01:51:18;1.60;99.90
23475;DHT22;11910;52.086;21.066;2023-03-04T01:53:47;1.60;99.90
23475;DHT22;11910;52.086;21.066;2023-03-04T01:56:27;1.50;99.90
23475;DHT22;11910;52.086;21.066;2023-03-04T02:01:34;1.50;99.90
23475;DHT22;11910;52.086;21.066;2023-03-04T02:04:01;1.60;99.90
23475;DHT22;11910;52.086;21.066;2023-03-04T02:06:26;1.60;99.90
23475;DHT22;11910;52.086;21.066;2023-03-04T02:08:52;1.60;99.90
23475;DHT22;11910;52.086;21.066;2023-03-04T02:11:18;1.60;99.90
23475;DHT22;11910;52.086;21.066;2023-03-04T02:13:43;1.60;99.90
23475;DHT22;11910;52.086;21.066;2023-03-04T02:16:09;1.60;99.90
23475;DHT22;11910;52.086;21.066;2023-03-04T02:18:35;1.60;99.90
23475;DHT22;11910;52.086;21.066;2023-03-04T02:21:04;1.60;99.90
23475;DHT22;11910;52.086;21.066;2023-03-04T02:26:16;1.60;99.90
23475;DHT22;11910;52.086;21.066;2023-03-04T02:28:43;1.60;99.90
23475;DHT22;11910;52.086;21.066;2023-03-04T02:31:25;1.70;99.90
23475;DHT22;11910;52.086;21.066;2023-03-04T02:33:53;1.60;99.90
23475;DHT22;11910;52.086;21.066;2023-03-04T02:36:19;1.70;99.90
23475;DHT22;11910;52.086;21.066;2023-03-04T02:38:45;1.70;99.90
23475;DHT22;11910;52.086;21.066;2023-03-04T02:41:13;1.70;99.90
23475;DHT22;11910;52.086;21.066;2023-03-04T02:43:39;1.70;99.90
23475;DHT22;11910;52.086;21.066;2023-03-04T02:46:05;1.70;99.90
23475;DHT22;11910;52.086;21.066;2023-03-04T02:48:31;1.70;99.90
23475;DHT22;11910;52.086;21.066;2023-03-04T02:50:56;1.70;99.90
23475;DHT22;11910;52.086;21.066;2023-03-04T02:53:22;1.80;99.90
23475;DHT22;11910;52.086;21.066;2023-03-04T02:55:50;1.80;99.90
23475;DHT22;11910;52.086;21.066;2023-03-04T02:58:16;1.80;99.90
23475;DHT22;11910;52.086;21.066;2023-03-04T03:00:41;1.90;99.90
23475;DHT22;11910;52.086;21.066;2023-03-04T03:03:07;1.80;99.90
23475;DHT22;11910;52.086;21.066;2023-03-04T03:05:33;1.80;99.90
23475;DHT22;11910;52.086;21.066;2023-03-04T03:07:59;1.90;99.90
23475;DHT22;11910;52.086;21.066;2023-03-04T03:10:25;1.90;99.90
23475;DHT22;11910;52.086;21.066;2023-03-04T03:12:51;1.90;99.90
23475;DHT22;11910;52.086;21.066;2023-03-04T03:15:17;1.90;99.90
23475;DHT22;11910;52.086;21.066;2023-03-04T03:17:43;2.00;99.90
23475;DHT22;11910;52.086;21.066;2023-03-04T03:20:09;2.00;99.90
23475;DHT22;11910;52.086;21.066;2023-03-04T03:22:36;2.00;99.90
23475;DHT22;11910;52.086;21.066;2023-03-04T03:25:02;2.00;99.90
23475;DHT22;11910;52.086;21.066;2023-03-04T03:27:27;2.00;99.90
23475;DHT22;11910;52.086;21.066;2023-03-04T03:29:53;2.00;99.90
23475;DHT22;11910;52.086;21.066;2023-03-04T03:32:18;2.00;99.90
23475;DHT22;11910;52.086;21.066;2023-03-04T03:34:44;2.10;99.90
23475;DHT22;11910;52.086;21.066;2023-03-04T03:37:10;2.10;99.90
23475;DHT22;11910;52.086;21.066;2023-03-04T03:39:35;2.10;99.90
23475;DHT22;11910;52.086;21.066;2023-03-04T03:42:01;2.10;99.90
23475;DHT22;11910;52.086;21.066;2023-03-04T03:44:27;2.20;99.90
23475;DHT22;11910;52.086;21.066;2023-03-04T03:46:52;2.20;99.90
23475;DHT22;11910;52.086;21.066;2023-03-04T03:49:18;2.20;99.90
23475;DHT22;11910;52.086;21.066;2023-03-04T03:51:44;2.20;99.90
23475;DHT22;11910;52.086;21.066;2023-03-04T03:54:09;2.20;99.90
23475;DHT22;11910;52.086;21.066;2023-03-04T03:56:35;2.20;99.90
23475;DHT22;11910;52.086;21.066;2023-03-04T03:59:00;2.20;99.90
23475;DHT22;11910;52.086;21.066;2023-03-04T04:01:26;2.30;99.90
23475;DHT22;11910;52.086;21.066;2023-03-04T04:03:51;2.30;99.90
23475;DHT22;11910;52.086;21.066;2023-03-04T04:06:17;2.30;99.90
23475;DHT22;11910;52.086;21.066;2023-03-04T04:08:43;2.30;99.90
23475;DHT22;11910;52.086;21.066;2023-03-04T04:11:09;2.30;99.90
23475;DHT22;11910;52.086;21.066;2023-03-04T04:13:35;2.40;99.90
23475;DHT22;11910;52.086;21.066;2023-03-04T04:16:00;2.40;99.90
23475;DHT22;11910;52.086;21.066;2023-03-04T04:18:26;2.40;99.90
23475;DHT22;11910;52.086;21.066;2023-03-04T04:20:52;2.30;99.90
23475;DHT22;11910;52.086;21.066;2023-03-04T04:23:18;2.40;99.90
23475;DHT22;11910;52.086;21.066;2023-03-04T04:25:43;2.40;99.90
23475;DHT22;11910;52.086;21.066;2023-03-04T04:28:09;2.40;99.90
23475;DHT22;11910;52.086;21.066;2023-03-04T04:30:34;2.40;99.90
23475;DHT22;11910;52.086;21.066;2023-03-04T04:33:00;2.40;99.90
23475;DHT22;11910;52.086;21.066;2023-03-04T04:35:31;2.40;99.90
23475;DHT22;11910;52.086;21.066;2023-03-04T04:37:57;2.50;99.90
23475;DHT22;11910;52.086;21.066;2023-03-04T04:40:23;2.50;99.90
23475;DHT22;11910;52.086;21.066;2023-03-04T04:42:48;2.50;99.90
23475;DHT22;11910;52.086;21.066;2023-03-04T04:45:14;2.50;99.90
23475;DHT22;11910;52.086;21.066;2023-03-04T04:47:39;2.50;99.90
23475;DHT22;11910;52.086;21.066;2023-03-04T04:50:06;2.50;99.90
23475;DHT22;11910;52.086;21.066;2023-03-04T04:52:32;2.50;99.90
23475;DHT22;11910;52.086;21.066;2023-03-04T04:54:57;2.50;99.90
23475;DHT22;11910;52.086;21.066;2023-03-04T04:57:23;2.50;99.90
23475;DHT22;11910;52.086;21.066;2023-03-04T04:59:49;2.50;99.90
23475;DHT22;11910;52.086;21.066;2023-03-04T05:02:14;2.50;99.90
23475;DHT22;11910;52.086;21.066;2023-03-04T05:04:40;2.50;99.90
23475;DHT22;11910;52.086;21.066;2023-03-04T05:07:06;2.50;99.90
23475;DHT22;11910;52.086;21.066;2023-03-04T05:09:31;2.50;99.90
23475;DHT22;11910;52.086;21.066;2023-03-04T05:11:57;2.50;99.90
23475;DHT22;11910;52.086;21.066;2023-03-04T05:14:23;2.60;99.90
23475;DHT22;11910;52.086;21.066;2023-03-04T05:16:48;2.50;99.90
23475;DHT22;11910;52.086;21.066;2023-03-04T05:19:14;2.50;99.90
23475;DHT22;11910;52.086;21.066;2023-03-04T05:21:40;2.60;99.90
23475;DHT22;11910;52.086;21.066;2023-03-04T05:24:05;2.60;99.90
23475;DHT22;11910;52.086;21.066;2023-03-04T05:26:31;2.60;99.90
23475;DHT22;11910;52.086;21.066;2023-03-04T05:28:57;2.60;99.90
23475;DHT22;11910;52.086;21.066;2023-03-04T05:31:22;2.60;99.90
23475;DHT22;11910;52.086;21.066;2023-03-04T05:33:48;2.60;99.90
23475;DHT22;11910;52.086;21.066;2023-03-04T05:36:13;2.60;99.90
23475;DHT22;11910;52.086;21.066;2023-03-04T05:38:39;2.60;99.90
23475;DHT22;11910;52.086;21.066;2023-03-04T05:41:06;2.60;99.90
23475;DHT22;11910;52.086;21.066;2023-03-04T05:43:33;2.60;99.90
23475;DHT22;11910;52.086;21.066;2023-03-04T05:46:03;2.60;99.90
23475;DHT22;11910;52.086;21.066;2023-03-04T05:48:29;2.60;99.90
23475;DHT22;11910;52.086;21.066;2023-03-04T05:50:57;2.70;99.90
23475;DHT22;11910;52.086;21.066;2023-03-04T05:53:23;2.70;99.90
23475;DHT22;11910;52.086;21.066;2023-03-04T05:55:49;2.70;99.90
23475;DHT22;11910;52.086;21.066;2023-03-04T05:58:15;2.70;99.90
23475;DHT22;11910;52.086;21.066;2023-03-04T06:00:41;2.70;99.90
23475;DHT22;11910;52.086;21.066;2023-03-04T06:03:13;2.70;99.90
23475;DHT22;11910;52.086;21.066;2023-03-04T06:05:39;2.70;99.90
23475;DHT22;11910;52.086;21.066;2023-03-04T06:08:05;2.70;99.90
23475;DHT22;11910;52.086;21.066;2023-03-04T06:10:30;2.70;99.90
23475;DHT22;11910;52.086;21.066;2023-03-04T06:12:57;2.70;99.90
23475;DHT22;11910;52.086;21.066;2023-03-04T06:15:22;2.80;99.90
23475;DHT22;11910;52.086;21.066;2023-03-04T06:17:48;2.70;99.90
23475;DHT22;11910;52.086;21.066;2023-03-04T06:20:13;2.70;99.90
23475;DHT22;11910;52.086;21.066;2023-03-04T06:22:39;2.80;99.90
23475;DHT22;11910;52.086;21.066;2023-03-04T06:25:05;2.80;99.90
23475;DHT22;11910;52.086;21.066;2023-03-04T06:27:31;2.80;99.90
23475;DHT22;11910;52.086;21.066;2023-03-04T06:29:56;2.80;99.90
23475;DHT22;11910;52.086;21.066;2023-03-04T06:32:22;2.80;99.90
23475;DHT22;11910;52.086;21.066;2023-03-04T06:34:48;2.80;99.90
23475;DHT22;11910;52.086;21.066;2023-03-04T06:37:13;2.90;99.90
23475;DHT22;11910;52.086;21.066;2023-03-04T06:39:39;2.80;99.90
23475;DHT22;11910;52.086;21.066;2023-03-04T06:42:05;2.80;99.90
23475;DHT22;11910;52.086;21.066;2023-03-04T06:44:30;2.80;99.90
23475;DHT22;11910;52.086;21.066;2023-03-04T06:46:56;2.80;99.90
23475;DHT22;11910;52.086;21.066;2023-03-04T06:49:21;2.80;99.90
23475;DHT22;11910;52.086;21.066;2023-03-04T06:51:47;2.80;99.90
23475;DHT22;11910;52.086;21.066;2023-03-04T06:54:13;2.80;99.90
23475;DHT22;11910;52.086;21.066;2023-03-04T06:56:38;2.80;99.90
23475;DHT22;11910;52.086;21.066;2023-03-04T06:59:04;2.90;99.90
23475;DHT22;11910;52.086;21.066;2023-03-04T07:01:29;2.90;99.90
23475;DHT22;11910;52.086;21.066;2023-03-04T07:03:56;2.90;99.90
23475;DHT22;11910;52.086;21.066;2023-03-04T07:06:25;2.90;99.90
23475;DHT22;11910;52.086;21.066;2023-03-04T07:08:51;2.90;99.90
23475;DHT22;11910;52.086;21.066;2023-03-04T07:11:18;2.90;99.90
23475;DHT22;11910;52.086;21.066;2023-03-04T07:13:44;2.90;99.90
23475;DHT22;11910;52.086;21.066;2023-03-04T07:16:12;2.90;99.90
23475;DHT22;11910;52.086;21.066;2023-03-04T07:18:39;2.90;99.90
23475;DHT22;11910;52.086;21.066;2023-03-04T07:21:05;2.90;99.90
23475;DHT22;11910;52.086;21.066;2023-03-04T07:23:31;2.90;99.90
23475;DHT22;11910;52.086;21.066;2023-03-04T07:25:57;2.90;99.90
23475;DHT22;11910;52.086;21.066;2023-03-04T07:28:22;3.00;99.90
23475;DHT22;11910;52.086;21.066;2023-03-04T07:30:48;3.00;99.90
23475;DHT22;11910;52.086;21.066;2023-03-04T07:33:14;3.00;99.90
23475;DHT22;11910;52.086;21.066;2023-03-04T07:35:40;3.00;99.90
23475;DHT22;11910;52.086;21.066;2023-03-04T07:38:06;3.00;99.90
23475;DHT22;11910;52.086;21.066;2023-03-04T07:40:32;3.00;99.90
23475;DHT22;11910;52.086;21.066;2023-03-04T07:42:58;3.00;99.90
23475;DHT22;11910;52.086;21.066;2023-03-04T07:45:26;3.00;99.90
23475;DHT22;11910;52.086;21.066;2023-03-04T07:47:52;3.10;99.90
23475;DHT22;11910;52.086;21.066;2023-03-04T07:50:18;3.10;99.90
23475;DHT22;11910;52.086;21.066;2023-03-04T07:52:46;3.20;99.90
23475;DHT22;11910;52.086;21.066;2023-03-04T07:55:13;3.20;99.90
23475;DHT22;11910;52.086;21.066;2023-03-04T07:57:40;3.10;99.90
23475;DHT22;11910;52.086;21.066;2023-03-04T08:00:07;3.20;99.90
23475;DHT22;11910;52.086;21.066;2023-03-04T08:02:32;3.20;99.80
23475;DHT22;11910;52.086;21.066;2023-03-04T08:04:58;3.20;99.70
23475;DHT22;11910;52.086;21.066;2023-03-04T08:07:23;3.20;99.60
23475;DHT22;11910;52.086;21.066;2023-03-04T08:09:49;3.20;99.60
23475;DHT22;11910;52.086;21.066;2023-03-04T08:12:15;3.20;99.60
23475;DHT22;11910;52.086;21.066;2023-03-04T08:14:41;3.20;99.40
23475;DHT22;11910;52.086;21.066;2023-03-04T08:17:07;3.20;99.40
23475;DHT22;11910;52.086;21.066;2023-03-04T08:19:34;3.20;99.30
23475;DHT22;11910;52.086;21.066;2023-03-04T08:22:01;3.20;99.40
23475;DHT22;11910;52.086;21.066;2023-03-04T08:24:27;3.20;99.30
23475;DHT22;11910;52.086;21.066;2023-03-04T08:26:53;3.30;99.30
23475;DHT22;11910;52.086;21.066;2023-03-04T08:29:21;3.30;99.10
23475;DHT22;11910;52.086;21.066;2023-03-04T08:31:48;3.30;99.00
23475;DHT22;11910;52.086;21.066;2023-03-04T08:34:14;3.30;99.00
23475;DHT22;11910;52.086;21.066;2023-03-04T08:36:43;3.30;99.00
23475;DHT22;11910;52.086;21.066;2023-03-04T08:39:11;3.30;99.00
23475;DHT22;11910;52.086;21.066;2023-03-04T08:41:37;3.30;99.00
23475;DHT22;11910;52.086;21.066;2023-03-04T08:44:03;3.30;99.10
23475;DHT22;11910;52.086;21.066;2023-03-04T08:46:29;3.30;99.00
23475;DHT22;11910;52.086;21.066;2023-03-04T08:48:58;3.40;99.00
23475;DHT22;11910;52.086;21.066;2023-03-04T08:51:23;3.40;99.00
23475;DHT22;11910;52.086;21.066;2023-03-04T08:53:49;3.40;99.10
23475;DHT22;11910;52.086;21.066;2023-03-04T08:56:15;3.40;99.10
23475;DHT22;11910;52.086;21.066;2023-03-04T08:58:44;3.40;99.00
23475;DHT22;11910;52.086;21.066;2023-03-04T09:01:12;3.40;99.10
23475;DHT22;11910;52.086;21.066;2023-03-04T09:03:38;3.40;99.20
23475;DHT22;11910;52.086;21.066;2023-03-04T09:06:05;3.40;99.20
23475;DHT22;11910;52.086;21.066;2023-03-04T09:08:30;3.40;99.20
23475;DHT22;11910;52.086;21.066;2023-03-04T09:10:57;3.40;99.30
23475;DHT22;11910;52.086;21.066;2023-03-04T09:13:23;3.40;99.20
23475;DHT22;11910;52.086;21.066;2023-03-04T09:16:09;3.50;99.20
23475;DHT22;11910;52.086;21.066;2023-03-04T09:18:35;3.40;99.20
23475;DHT22;11910;52.086;21.066;2023-03-04T09:21:01;3.40;99.10
23475;DHT22;11910;52.086;21.066;2023-03-04T09:23:27;3.50;99.20
23475;DHT22;11910;52.086;21.066;2023-03-04T09:25:52;3.50;99.20
23475;DHT22;11910;52.086;21.066;2023-03-04T09:28:18;3.50;99.10
23475;DHT22;11910;52.086;21.066;2023-03-04T09:30:44;3.60;99.10
23475;DHT22;11910;52.086;21.066;2023-03-04T09:33:10;3.60;99.00
23475;DHT22;11910;52.086;21.066;2023-03-04T09:35:36;3.60;99.10
23475;DHT22;11910;52.086;21.066;2023-03-04T09:38:02;3.70;99.00
23475;DHT22;11910;52.086;21.066;2023-03-04T09:40:40;3.70;98.90
23475;DHT22;11910;52.086;21.066;2023-03-04T09:43:21;3.70;98.90
23475;DHT22;11910;52.086;21.066;2023-03-04T09:45:52;3.80;98.80
23475;DHT22;11910;52.086;21.066;2023-03-04T09:48:27;3.90;98.80
23475;DHT22;11910;52.086;21.066;2023-03-04T09:56:17;4.00;98.70
23475;DHT22;11910;52.086;21.066;2023-03-04T10:01:41;4.00;98.40
23475;DHT22;11910;52.086;21.066;2023-03-04T10:06:40;4.00;98.60
23475;DHT22;11910;52.086;21.066;2023-03-04T10:09:15;4.00;98.60
23475;DHT22;11910;52.086;21.066;2023-03-04T10:11:44;4.20;98.60
23475;DHT22;11910;52.086;21.066;2023-03-04T10:22:48;4.20;98.50
23475;DHT22;11910;52.086;21.066;2023-03-04T10:25:23;4.20;98.20
23475;DHT22;11910;52.086;21.066;2023-03-04T10:27:51;4.20;98.30
23475;DHT22;11910;52.086;21.066;2023-03-04T10:30:52;4.20;98.40
23475;DHT22;11910;52.086;21.066;2023-03-04T10:33:22;4.20;98.20
23475;DHT22;11910;52.086;21.066;2023-03-04T10:35:58;4.30;98.20
23475;DHT22;11910;52.086;21.066;2023-03-04T10:38:24;4.30;98.30
23475;DHT22;11910;52.086;21.066;2023-03-04T10:40:50;4.30;98.10
23475;DHT22;11910;52.086;21.066;2023-03-04T10:43:20;4.30;98.20
23475;DHT22;11910;52.086;21.066;2023-03-04T10:45:54;4.40;98.00
23475;DHT22;11910;52.086;21.066;2023-03-04T10:48:27;4.40;98.00
23475;DHT22;11910;52.086;21.066;2023-03-04T10:50:53;4.40;98.00
23475;DHT22;11910;52.086;21.066;2023-03-04T10:53:35;4.40;98.00
23475;DHT22;11910;52.086;21.066;2023-03-04T10:56:02;4.40;98.10
23475;DHT22;11910;52.086;21.066;2023-03-04T10:58:28;4.50;98.00
23475;DHT22;11910;52.086;21.066;2023-03-04T11:01:04;4.60;98.00
23475;DHT22;11910;52.086;21.066;2023-03-04T11:03:32;4.60;97.90
23475;DHT22;11910;52.086;21.066;2023-03-04T11:08:32;4.70;98.30
23475;DHT22;11910;52.086;21.066;2023-03-04T11:10:57;4.70;98.30
23475;DHT22;11910;52.086;21.066;2023-03-04T11:13:25;4.70;98.90
23475;DHT22;11910;52.086;21.066;2023-03-04T11:16:05;4.70;99.00
23475;DHT22;11910;52.086;21.066;2023-03-04T11:18:52;4.60;99.10
23475;DHT22;11910;52.086;21.066;2023-03-04T11:21:22;4.70;99.10
23475;DHT22;11910;52.086;21.066;2023-03-04T11:23:59;4.70;99.10
23475;DHT22;11910;52.086;21.066;2023-03-04T11:26:30;4.70;99.70
23475;DHT22;11910;52.086;21.066;2023-03-04T11:29:19;4.60;99.90
23475;DHT22;11910;52.086;21.066;2023-03-04T11:32:14;4.60;99.40
23475;DHT22;11910;52.086;21.066;2023-03-04T11:34:45;4.60;99.10
23475;DHT22;11910;52.086;21.066;2023-03-04T11:37:38;4.70;99.20
23475;DHT22;11910;52.086;21.066;2023-03-04T11:40:11;4.70;99.20
23475;DHT22;11910;52.086;21.066;2023-03-04T11:42:57;4.70;99.30
23475;DHT22;11910;52.086;21.066;2023-03-04T11:48:48;4.80;99.00
23475;DHT22;11910;52.086;21.066;2023-03-04T11:54:16;4.80;99.00
23475;DHT22;11910;52.086;21.066;2023-03-04T11:56:52;4.80;99.10
23475;DHT22;11910;52.086;21.066;2023-03-04T12:02:19;4.90;99.10
23475;DHT22;11910;52.086;21.066;2023-03-04T12:04:58;4.80;99.00
23475;DHT22;11910;52.086;21.066;2023-03-04T12:10:59;4.80;99.40
23475;DHT22;11910;52.086;21.066;2023-03-04T12:19:35;4.60;99.90
23475;DHT22;11910;52.086;21.066;2023-03-04T12:27:52;4.50;99.90
23475;DHT22;11910;52.086;21.066;2023-03-04T12:30:42;4.40;99.90
23475;DHT22;11910;52.086;21.066;2023-03-04T12:45:34;4.30;99.90
23475;DHT22;11910;52.086;21.066;2023-03-04T12:48:47;4.30;99.90
23475;DHT22;11910;52.086;21.066;2023-03-04T12:51:29;4.20;99.90
23475;DHT22;11910;52.086;21.066;2023-03-04T12:57:24;4.20;99.90
23475;DHT22;11910;52.086;21.066;2023-03-04T13:02:58;4.10;99.90
23475;DHT22;11910;52.086;21.066;2023-03-04T13:08:52;3.80;99.90
23475;DHT22;11910;52.086;21.066;2023-03-04T13:12:20;3.80;99.90
23475;DHT22;11910;52.086;21.066;2023-03-04T13:17:43;3.70;99.90
23475;DHT22;11910;52.086;21.066;2023-03-04T13:20:33;3.80;99.90
23475;DHT22;11910;52.086;21.066;2023-03-04T13:23:01;3.80;99.90
23475;DHT22;11910;52.086;21.066;2023-03-04T13:25:33;3.90;99.90
23475;DHT22;11910;52.086;21.066;2023-03-04T13:54:30;5.20;99.90
23475;DHT22;11910;52.086;21.066;2023-03-04T13:59:42;5.10;99.90
23475;DHT22;11910;52.086;21.066;2023-03-04T14:02:19;5.10;99.90
23475;DHT22;11910;52.086;21.066;2023-03-04T14:04:57;5.00;99.90
23475;DHT22;11910;52.086;21.066;2023-03-04T14:07:30;5.10;99.90
23475;DHT22;11910;52.086;21.066;2023-03-04T14:12:45;5.10;99.90
23475;DHT22;11910;52.086;21.066;2023-03-04T14:17:38;5.00;99.90
23475;DHT22;11910;52.086;21.066;2023-03-04T14:22:52;4.90;99.90
23475;DHT22;11910;52.086;21.066;2023-03-04T14:25:24;4.90;99.90
23475;DHT22;11910;52.086;21.066;2023-03-04T14:28:00;4.80;99.90
23475;DHT22;11910;52.086;21.066;2023-03-04T14:30:27;5.00;99.90
23475;DHT22;11910;52.086;21.066;2023-03-04T14:32:56;5.10;99.90
23475;DHT22;11910;52.086;21.066;2023-03-04T14:35:30;5.00;99.40
23475;DHT22;11910;52.086;21.066;2023-03-04T14:38:28;4.80;99.40
23475;DHT22;11910;52.086;21.066;2023-03-04T14:41:08;4.70;98.90
23475;DHT22;11910;52.086;21.066;2023-03-04T14:43:40;4.70;99.10
23475;DHT22;11910;52.086;21.066;2023-03-04T14:46:11;4.70;99.20
23475;DHT22;11910;52.086;21.066;2023-03-04T14:48:50;4.60;98.60
23475;DHT22;11910;52.086;21.066;2023-03-04T14:51:49;4.50;98.40
23475;DHT22;11910;52.086;21.066;2023-03-04T14:54:40;4.40;99.00
23475;DHT22;11910;52.086;21.066;2023-03-04T14:57:25;4.40;98.90
23475;DHT22;11910;52.086;21.066;2023-03-04T14:59:53;4.30;99.40
23475;DHT22;11910;52.086;21.066;2023-03-04T15:04:58;4.10;99.90
23475;DHT22;11910;52.086;21.066;2023-03-04T15:07:32;3.90;99.90
23475;DHT22;11910;52.086;21.066;2023-03-04T15:10:02;3.80;99.90
23475;DHT22;11910;52.086;21.066;2023-03-04T15:12:31;3.70;99.90
23475;DHT22;11910;52.086;21.066;2023-03-04T15:15:00;3.70;99.90
23475;DHT22;11910;52.086;21.066;2023-03-04T15:17:33;3.60;99.90
23475;DHT22;11910;52.086;21.066;2023-03-04T15:25:04;3.70;99.90
23475;DHT22;11910;52.086;21.066;2023-03-04T15:27:30;3.80;99.90
23475;DHT22;11910;52.086;21.066;2023-03-04T15:29:58;3.80;99.90
23475;DHT22;11910;52.086;21.066;2023-03-04T15:32:28;3.90;99.90
23475;DHT22;11910;52.086;21.066;2023-03-04T15:34:54;3.90;99.90
23475;DHT22;11910;52.086;21.066;2023-03-04T15:37:26;4.00;99.90
23475;DHT22;11910;52.086;21.066;2023-03-04T15:39:52;4.00;99.90
23475;DHT22;11910;52.086;21.066;2023-03-04T15:42:22;4.00;98.90
23475;DHT22;11910;52.086;21.066;2023-03-04T15:44:48;4.00;97.60
23475;DHT22;11910;52.086;21.066;2023-03-04T15:47:14;4.00;97.50
23475;DHT22;11910;52.086;21.066;2023-03-04T15:49:41;4.00;95.00
23475;DHT22;11910;52.086;21.066;2023-03-04T15:52:14;4.00;93.70
23475;DHT22;11910;52.086;21.066;2023-03-04T15:54:40;4.00;92.90
23475;DHT22;11910;52.086;21.066;2023-03-04T15:57:20;4.00;89.20
23475;DHT22;11910;52.086;21.066;2023-03-04T15:59:47;4.00;87.90
23475;DHT22;11910;52.086;21.066;2023-03-04T16:02:21;3.90;84.70
23475;DHT22;11910;52.086;21.066;2023-03-04T16:04:47;3.80;85.10
23475;DHT22;11910;52.086;21.066;2023-03-04T16:07:17;3.80;84.70
23475;DHT22;11910;52.086;21.066;2023-03-04T16:09:44;3.80;84.70
23475;DHT22;11910;52.086;21.066;2023-03-04T16:12:12;3.70;84.50
23475;DHT22;11910;52.086;21.066;2023-03-04T16:14:38;3.60;83.30
23475;DHT22;11910;52.086;21.066;2023-03-04T16:17:04;3.50;84.10
23475;DHT22;11910;52.086;21.066;2023-03-04T16:19:29;3.50;85.30
23475;DHT22;11910;52.086;21.066;2023-03-04T16:21:55;3.40;86.50
23475;DHT22;11910;52.086;21.066;2023-03-04T16:24:21;3.40;86.70
23475;DHT22;11910;52.086;21.066;2023-03-04T16:26:47;3.30;85.10
23475;DHT22;11910;52.086;21.066;2023-03-04T16:29:14;3.30;84.40
23475;DHT22;11910;52.086;21.066;2023-03-04T16:31:39;3.20;83.10
23475;DHT22;11910;52.086;21.066;2023-03-04T16:34:05;3.10;82.80
23475;DHT22;11910;52.086;21.066;2023-03-04T16:36:31;2.90;81.90
23475;DHT22;11910;52.086;21.066;2023-03-04T16:38:59;2.90;81.90
23475;DHT22;11910;52.086;21.066;2023-03-04T16:41:28;2.80;82.50
23475;DHT22;11910;52.086;21.066;2023-03-04T16:43:57;2.80;84.40
23475;DHT22;11910;52.086;21.066;2023-03-04T16:46:23;2.80;83.60
23475;DHT22;11910;52.086;21.066;2023-03-04T16:48:49;2.70;82.60
23475;DHT22;11910;52.086;21.066;2023-03-04T16:51:17;2.70;80.40
23475;DHT22;11910;52.086;21.066;2023-03-04T16:53:47;2.70;81.70
23475;DHT22;11910;52.086;21.066;2023-03-04T16:56:15;2.60;81.10
23475;DHT22;11910;52.086;21.066;2023-03-04T16:58:42;2.60;78.70
23475;DHT22;11910;52.086;21.066;2023-03-04T17:01:16;2.50;74.40
23475;DHT22;11910;52.086;21.066;2023-03-04T17:03:42;2.50;72.90
23475;DHT22;11910;52.086;21.066;2023-03-04T17:06:09;2.40;73.40
23475;DHT22;11910;52.086;21.066;2023-03-04T17:08:35;2.30;72.50
23475;DHT22;11910;52.086;21.066;2023-03-04T17:11:00;2.20;71.00
23475;DHT22;11910;52.086;21.066;2023-03-04T17:13:26;2.10;69.00
23475;DHT22;11910;52.086;21.066;2023-03-04T17:15:52;2.10;71.80
23475;DHT22;11910;52.086;21.066;2023-03-04T17:18:17;2.00;71.10
23475;DHT22;11910;52.086;21.066;2023-03-04T17:20:43;2.00;70.10
23475;DHT22;11910;52.086;21.066;2023-03-04T17:23:08;1.90;71.60
23475;DHT22;11910;52.086;21.066;2023-03-04T17:25:34;1.90;70.70
23475;DHT22;11910;52.086;21.066;2023-03-04T17:28:00;1.90;72.00
23475;DHT22;11910;52.086;21.066;2023-03-04T17:30:25;1.90;71.10
23475;DHT22;11910;52.086;21.066;2023-03-04T17:32:51;1.90;70.70
23475;DHT22;11910;52.086;21.066;2023-03-04T17:35:17;1.90;71.90
23475;DHT22;11910;52.086;21.066;2023-03-04T17:37:42;1.90;71.70
23475;DHT22;11910;52.086;21.066;2023-03-04T17:40:08;1.90;71.50